Colby, KS

4:34 AM CDT on October 24, 2017 (GMT -0500)
Shaltz

Weather History for KCBK - August, 2014

Change the Weather History Date:

Monday, August 4, 2014

  Actual Average (KGLD) Record (KGLD)
Temperature  
Mean Temperature 78 °F -  
Max Temperature 93 °F 85 °F 104 °F (1934)
Min Temperature 62 °F 60 °F 47 °F (1974)
Cooling Degree Days 12    
Growing Degree Days 28 (Base 50)    
Moisture  
Dew Point 56 °F    
Average Humidity 51    
Maximum Humidity 83    
Minimum Humidity 27    
Precipitation  
Precipitation 0.00 in - - ()
Sea Level Pressure  
Sea Level Pressure 30.09 in    
Wind  
Wind Speed 11 mph (South)    
Max Wind Speed 18 mph    
Max Gust Speed 28 mph    
Visibility 10 miles    
Events      
Averages and records for this station are not official NWS values.
T = Trace of Precipitation, MM = Missing Value Source: NWS Daily Summary

Daily Weather History Graph

Daily Weather History Graph

Search for Another Location

Airport or City:

Trip Planner

Search our weather history database for the weather conditions in past years. The results will help you decide how hot, cold, wet, or windy it might be!

Date:

Astronomy

Aug. 04, 2014 Rise Set
Actual Time 6:46 AM CDT 8:53 PM CDT
Civil Twilight 6:16 AM CDT 9:22 PM CDT
Nautical Twilight 5:40 AM CDT 9:59 PM CDT
Astronomical Twilight 5:01 AM CDT 10:38 PM CDT
Moon 3:07 PM CDT (8/4) 12:54 AM CDT (8/4)
Length of Visible Light 15h 05m
Length of Day
14h 06m
First Quarter, 57% of the Moon is Illuminated
Aug 4
First Quarter
Aug 10
Full
Aug 17
Last Quarter
Aug 25
New
Sep 2
First Quarter

Hourly Weather History & Observations

Time (CDT) Temp. Heat Index Dew Point Humidity Pressure Visibility Wind Dir Wind Speed Gust Speed Precip Events Conditions
12:15 AM 73.4 °F - 55.4 °F 53% 30.13 in 10.0 mi SSW 11.5 mph 17.3 mph N/A   Clear
12:35 AM 73.4 °F - 55.4 °F 53% 30.13 in 10.0 mi SSW 10.4 mph - N/A   Clear
12:55 AM 71.6 °F - 57.2 °F 60% 30.13 in 10.0 mi SSW 10.4 mph - N/A   Clear
1:15 AM 71.6 °F - 57.2 °F 60% 30.12 in 10.0 mi SSW 9.2 mph - N/A   Clear
1:35 AM 69.8 °F - 57.2 °F 64% 30.12 in 10.0 mi SSW 9.2 mph - N/A   Clear
1:55 AM 69.8 °F - 57.2 °F 64% 30.12 in 10.0 mi SSW 9.2 mph - N/A   Clear
2:15 AM 68.0 °F - 57.2 °F 68% 30.11 in 10.0 mi SSW 9.2 mph - N/A   Clear
2:35 AM 68.0 °F - 57.2 °F 68% 30.11 in 10.0 mi SSW 10.4 mph - N/A   Clear
2:55 AM 68.0 °F - 57.2 °F 68% 30.11 in 10.0 mi SSW 9.2 mph - N/A   Clear
3:15 AM 68.0 °F - 55.4 °F 64% 30.11 in 10.0 mi SSW 11.5 mph - N/A   Clear
3:35 AM 68.0 °F - 55.4 °F 64% 30.11 in 10.0 mi SSW 10.4 mph - N/A   Clear
3:55 AM 66.2 °F - 55.4 °F 68% 30.11 in 10.0 mi SW 10.4 mph - N/A   Clear
4:15 AM 64.4 °F - 55.4 °F 73% 30.11 in 10.0 mi SW 9.2 mph - N/A   Clear
4:35 AM 64.4 °F - 55.4 °F 73% 30.11 in 10.0 mi SW 8.1 mph - N/A   Clear
4:55 AM 62.6 °F - 55.4 °F 77% 30.11 in 10.0 mi SW 9.2 mph - N/A   Clear
5:15 AM 62.6 °F - 55.4 °F 77% 30.11 in 10.0 mi SW 8.1 mph - N/A   Clear
5:35 AM 62.6 °F - 55.4 °F 77% 30.10 in 10.0 mi SW 9.2 mph - N/A   Clear
5:55 AM 62.6 °F - 55.4 °F 77% 30.10 in 10.0 mi SW 8.1 mph - N/A   Clear
6:15 AM 62.6 °F - 57.2 °F 82% 30.10 in 10.0 mi SSW 6.9 mph - N/A   Clear
6:35 AM 62.6 °F - 57.2 °F 82% 30.11 in 10.0 mi SSW 9.2 mph - N/A   Clear
6:55 AM 62.6 °F - 57.2 °F 82% 30.11 in 10.0 mi SSW 8.1 mph - N/A   Clear
7:15 AM 62.6 °F - 57.2 °F 82% 30.12 in 10.0 mi SSW 6.9 mph - N/A   Clear
7:35 AM 64.4 °F - 59.0 °F 83% 30.12 in 10.0 mi SSW 9.2 mph - N/A   Clear
7:55 AM 64.4 °F - 59.0 °F 83% 30.12 in 10.0 mi SSW 6.9 mph - N/A   Clear
8:15 AM 68.0 °F - 59.0 °F 73% 30.12 in 10.0 mi SSW 10.4 mph - N/A   Clear
8:35 AM 71.6 °F - 60.8 °F 69% 30.12 in 10.0 mi SSW 11.5 mph 19.6 mph N/A   Clear
8:55 AM 73.4 °F - 60.8 °F 65% 30.12 in 10.0 mi SSW 12.7 mph 17.3 mph N/A   Clear
9:15 AM 73.4 °F - 60.8 °F 65% 30.12 in 10.0 mi SSW 15.0 mph - N/A   Clear
9:35 AM 77.0 °F - 60.8 °F 57% 30.12 in 10.0 mi SSW 11.5 mph 19.6 mph N/A   Clear
9:55 AM 78.8 °F - 60.8 °F 54% 30.12 in 10.0 mi SSW 11.5 mph - N/A   Clear
10:15 AM 80.6 °F 81.5 °F 60.8 °F 51% 30.12 in 10.0 mi South 10.4 mph - N/A   Clear
10:55 AM 82.4 °F 82.9 °F 60.8 °F 48% 30.12 in 10.0 mi South 12.7 mph - N/A   Clear
11:15 AM 84.2 °F 84.4 °F 60.8 °F 45% 30.12 in 10.0 mi South 10.4 mph - N/A   Clear
11:35 AM 86.0 °F 86.1 °F 60.8 °F 43% 30.11 in 10.0 mi SSW 9.2 mph - N/A   Clear
11:55 AM 87.8 °F 87.6 °F 60.8 °F 40% 30.11 in 10.0 mi SSW 10.4 mph - N/A   Clear
12:15 PM 87.8 °F 87.6 °F 60.8 °F 40% 30.11 in 10.0 mi South 13.8 mph 17.3 mph N/A   Clear
12:35 PM 89.6 °F 88.9 °F 59.0 °F 36% 30.10 in 10.0 mi SSW 12.7 mph 18.4 mph N/A   Clear
12:55 PM 91.4 °F 90.7 °F 59.0 °F 34% 30.10 in 10.0 mi South 13.8 mph 17.3 mph N/A   Clear
1:15 PM 89.6 °F 88.9 °F 59.0 °F 36% 30.09 in 10.0 mi SSE 10.4 mph 18.4 mph N/A   Clear
1:35 PM 91.4 °F 89.9 °F 57.2 °F 31% 30.09 in 10.0 mi South 13.8 mph 20.7 mph N/A   Clear
1:55 PM 91.4 °F 90.7 °F 59.0 °F 34% 30.08 in 10.0 mi SSW 15.0 mph 20.7 mph N/A   Clear
2:15 PM 91.4 °F 89.4 °F 55.4 °F 29% 30.07 in 10.0 mi South 16.1 mph 21.9 mph N/A   Clear
2:35 PM 93.2 °F 91.3 °F 55.4 °F 28% 30.07 in 10.0 mi South 11.5 mph 24.2 mph N/A   Clear
2:55 PM 91.4 °F 89.4 °F 55.4 °F 29% 30.06 in 10.0 mi SSE 13.8 mph 27.6 mph N/A   Clear
3:15 PM 93.2 °F 91.3 °F 55.4 °F 28% 30.06 in 10.0 mi South 12.7 mph 21.9 mph N/A   Clear
3:35 PM 93.2 °F 91.3 °F 55.4 °F 28% 30.06 in 10.0 mi South 11.5 mph 23.0 mph N/A   Scattered Clouds
3:55 PM 93.2 °F 91.3 °F 55.4 °F 28% 30.05 in 10.0 mi SSE 18.4 mph 24.2 mph N/A   Scattered Clouds
4:15 PM 91.4 °F 89.1 °F 53.6 °F 28% 30.05 in 10.0 mi SSW 13.8 mph 27.6 mph N/A   Scattered Clouds
4:35 PM 91.4 °F 89.1 °F 53.6 °F 28% 30.05 in 10.0 mi South 18.4 mph 25.3 mph N/A   Scattered Clouds
4:55 PM 91.4 °F 89.1 °F 53.6 °F 28% 30.04 in 10.0 mi SSE 15.0 mph - N/A   Clear
5:15 PM 89.6 °F - 51.8 °F 27% 30.04 in 10.0 mi SSE 17.3 mph 20.7 mph N/A   Clear
5:35 PM 91.4 °F 89.1 °F 53.6 °F 28% 30.04 in 10.0 mi South 16.1 mph - N/A   Clear
5:55 PM 91.4 °F 89.1 °F 53.6 °F 28% 30.03 in 10.0 mi SSE 13.8 mph 23.0 mph N/A   Clear
6:15 PM 91.4 °F 89.1 °F 53.6 °F 28% 30.03 in 10.0 mi South 15.0 mph 20.7 mph N/A   Scattered Clouds
6:35 PM 89.6 °F 87.3 °F 53.6 °F 29% 30.03 in 10.0 mi South 13.8 mph 18.4 mph N/A   Scattered Clouds
6:55 PM 87.8 °F 85.7 °F 53.6 °F 31% 30.03 in 10.0 mi South 10.4 mph - N/A   Clear
7:15 PM 87.8 °F 85.7 °F 53.6 °F 31% 30.03 in 10.0 mi SSE 9.2 mph - N/A   Clear
7:35 PM 89.6 °F 87.3 °F 53.6 °F 29% 30.04 in 10.0 mi South 13.8 mph 19.6 mph N/A   Clear
9:15 PM 80.6 °F - 51.8 °F 37% 30.06 in 10.0 mi South 10.4 mph - N/A   Clear
9:35 PM 78.8 °F - 51.8 °F 39% 30.06 in 10.0 mi SSE 6.9 mph - N/A   Clear
9:55 PM 78.8 °F - 51.8 °F 39% 30.07 in 10.0 mi SSE 8.1 mph - N/A   Clear
10:15 PM 77.0 °F - 51.8 °F 41% 30.08 in 10.0 mi SSE 9.2 mph - N/A   Clear
10:35 PM 78.8 °F - 53.6 °F 42% 30.08 in 10.0 mi SSE 12.7 mph - N/A   Clear
10:55 PM 77.0 °F - 53.6 °F 44% 30.09 in 10.0 mi SSE 11.5 mph - N/A   Clear
11:15 PM 77.0 °F - 55.4 °F 47% 30.08 in 10.0 mi SSE 10.4 mph - N/A   Scattered Clouds
11:35 PM 75.2 °F - 55.4 °F 50% 30.08 in 10.0 mi SSE 13.8 mph 17.3 mph N/A   Scattered Clouds